Summerton, South Carolina
Current Conditions -  °F | °C
As of 8:58 AM on Monday 26 Jan 2015 (Local Time) from KSSC Reporting Station
Clear Clear  
Wind Chill: 40°   Ceiling: Unl
Heat Index: 45°   Visibility: 10mi
Dew Point: 40°   Wind: 10mph
Humidity: 83%   Direction: 240°WSW
Pressure: 29.66"   Gusts: NA
Location:  33.61°N, 80.35°W
Report Text: KSSC 261358Z AUTO 24009KT 10SM CLR 07/05 A2966 RMK AO2 SLP046 T00740046 $
Loading
Personal Weather Stations






























Interactive Weather Map New forecast layout! Learn more

10-Day Weather Forecast

Advertisements
Track Severe Weather on mobile